Time;durP1;ratioP1;P1;durP2;ratioP2;P2;SDS_P1;SDS_P2;PMS_P1;PMS_P2;Temp;Humidity;BMP_temperature;BMP_pressure;BME280_temperature;BME280_humidity;BME280_pressure;Samples;Min_cycle;Max_cycle;Signal;HPM_P1;HPM_P2
2023/12/07 00:00:41;;;;;;;1.60;0.80;;;4.40;16.20;;;;;;5095991;28;20428;-57
2023/12/07 00:03:08;;;;;;;1.70;0.90;;;4.40;1.00;;;;;;5096010;28;20418;-60
2023/12/07 00:05:36;;;;;;;1.70;0.90;;;4.50;3.80;;;;;;5096119;28;20736;-56
2023/12/07 00:08:04;;;;;;;1.90;1.00;;;4.50;1.00;;;;;;5096218;28;20426;-57
2023/12/07 00:10:31;;;;;;;2.03;0.80;;;4.50;1.00;;;;;;5096151;28;20418;-57
2023/12/07 00:12:58;;;;;;;1.50;0.80;;;4.50;1.00;;;;;;5096025;28;20512;-58
2023/12/07 00:15:25;;;;;;;2.10;0.80;;;4.60;1.00;;;;;;5095712;28;20429;-57
2023/12/07 00:17:52;;;;;;;1.20;0.70;;;4.70;1.00;;;;;;5095819;28;20505;-59
2023/12/07 00:20:19;;;;;;;1.40;0.80;;;4.70;1.00;;;;;;5095863;28;20463;-57
2023/12/07 00:22:48;;;;;;;1.20;0.80;;;4.70;1.00;;;;;;5093724;28;20740;-58
2023/12/07 00:25:15;;;;;;;1.85;0.90;;;4.70;1.00;;;;;;5094794;28;20421;-57
2023/12/07 00:27:42;;;;;;;1.80;0.70;;;4.70;1.00;;;;;;5094525;28;20508;-58
2023/12/07 00:30:10;;;;;;;1.55;0.80;;;4.60;1.00;;;;;;5093137;28;20726;-58
2023/12/07 00:32:37;;;;;;;1.75;0.77;;;4.70;1.00;;;;;;5093600;28;20430;-57
2023/12/07 00:35:07;;;;;;;1.60;0.82;;;4.60;1.00;;;;;;5093708;28;20434;-58
2023/12/07 00:37:34;;;;;;;1.30;0.80;;;4.60;1.00;;;;;;5094008;28;20438;-59
2023/12/07 00:40:03;;;;;;;1.60;0.80;;;4.60;1.00;;;;;;5093320;28;20426;-59
2023/12/07 00:42:31;;;;;;;1.50;0.80;;;4.50;1.00;;;;;;5092082;28;20886;-59
2023/12/07 00:44:58;;;;;;;2.10;0.77;;;4.60;1.00;;;;;;5092770;28;20551;-57
2023/12/07 00:47:25;;;;;;;1.50;0.80;;;4.70;1.00;;;;;;5094303;28;20417;-58
2023/12/07 00:49:52;;;;;;;2.20;0.80;;;4.60;1.00;;;;;;5093417;28;20917;-58
2023/12/07 00:52:19;;;;;;;1.25;0.80;;;4.50;1.00;;;;;;5072110;28;20477;-60
2023/12/07 00:54:46;;;;;;;2.10;0.80;;;4.50;1.00;;;;;;5073739;28;20424;-59
2023/12/07 00:57:14;;;;;;;1.42;0.90;;;4.40;1.00;;;;;;5075166;28;20416;-57
2023/12/07 00:59:41;;;;;;;1.90;0.90;;;4.40;1.00;;;;;;5074600;28;20441;-57
2023/12/07 01:02:08;;;;;;;1.00;0.70;;;4.50;1.00;;;;;;5074803;28;20427;-56
2023/12/07 01:04:35;;;;;;;1.60;0.73;;;4.50;1.00;;;;;;5075271;28;20435;-57
2023/12/07 01:07:02;;;;;;;2.40;0.80;;;4.50;1.00;;;;;;5075018;28;20846;-56
2023/12/07 01:09:29;;;;;;;2.00;0.70;;;4.50;1.00;;;;;;5073968;28;20450;-59
2023/12/07 01:11:57;;;;;;;1.30;0.80;;;4.50;1.00;;;;;;5074753;28;20470;-56
2023/12/07 01:14:26;;;;;;;1.75;0.90;;;4.60;1.00;;;;;;5074953;28;20442;-58
2023/12/07 01:16:53;;;;;;;2.70;0.90;;;4.40;1.00;;;;;;5075009;28;20506;-58
2023/12/07 01:19:21;;;;;;;1.30;0.80;;;4.50;1.00;;;;;;5074022;28;20427;-58
2023/12/07 01:21:48;;;;;;;1.10;0.80;;;4.50;1.00;;;;;;5072185;28;20419;-58
2023/12/07 01:24:15;;;;;;;1.40;0.90;;;4.50;1.00;;;;;;5072094;28;20477;-58
2023/12/07 01:26:42;;;;;;;1.60;0.80;;;4.50;1.00;;;;;;5072543;28;20415;-60
2023/12/07 01:29:09;;;;;;;2.30;0.80;;;4.50;1.00;;;;;;5073660;28;20418;-57
2023/12/07 01:31:37;;;;;;;1.90;0.80;;;4.50;1.00;;;;;;5073376;28;20423;-58
2023/12/07 01:34:04;;;;;;;1.67;0.80;;;4.50;1.00;;;;;;5072494;28;20427;-54
2023/12/07 01:36:31;;;;;;;1.50;0.85;;;4.40;1.00;;;;;;5069231;28;20450;-57
2023/12/07 01:38:58;;;;;;;2.38;0.93;;;4.40;1.00;;;;;;5049185;28;20424;-59
2023/12/07 01:41:25;;;;;;;1.63;0.80;;;4.40;1.00;;;;;;5054790;28;20852;-58
2023/12/07 01:43:52;;;;;;;2.40;0.90;;;4.40;1.00;;;;;;5055047;28;20498;-58
2023/12/07 01:46:19;;;;;;;1.30;0.80;;;4.40;1.00;;;;;;5054386;28;20483;-59
2023/12/07 01:48:49;;;;;;;1.77;0.80;;;4.40;1.00;;;;;;5054298;28;20530;-58
2023/12/07 01:51:17;;;;;;;1.38;0.90;;;4.40;1.00;;;;;;5075855;28;20426;-57
2023/12/07 01:53:44;;;;;;;1.40;0.90;;;4.40;84.50;;;;;;5094222;28;20441;-59
2023/12/07 01:56:12;;;;;;;1.77;0.80;;;4.40;84.40;;;;;;5095159;28;20464;-60
2023/12/07 01:58:39;;;;;;;2.00;0.80;;;4.50;99.90;;;;;;5094472;28;20428;-59
2023/12/07 02:01:06;;;;;;;1.20;0.60;;;4.50;99.90;;;;;;5095708;28;20425;-59
2023/12/07 02:03:33;;;;;;;1.50;0.70;;;4.60;99.90;;;;;;5098415;28;20433;-59
2023/12/07 02:06:04;;;;;;;1.55;0.90;;;4.60;99.90;;;;;;5098369;28;20410;-58
2023/12/07 02:08:31;;;;;;;1.23;0.80;;;4.60;99.90;;;;;;5098050;28;20425;-58
2023/12/07 02:10:58;;;;;;;3.78;0.80;;;4.60;99.90;;;;;;5098167;28;20845;-59
2023/12/07 02:13:25;;;;;;;2.08;0.80;;;4.60;99.90;;;;;;5098636;28;20425;-58
2023/12/07 02:15:54;;;;;;;1.80;1.00;;;4.60;99.90;;;;;;5098251;28;20526;-57
2023/12/07 02:18:29;;;;;;;1.55;1.00;;;4.60;99.90;;;;;;5097052;28;20418;-58
2023/12/07 02:21:02;;;;;;;2.47;0.90;;;4.60;99.90;;;;;;5097363;28;20417;-58
2023/12/07 02:23:31;;;;;;;3.20;1.00;;;4.50;59.90;;;;;;5097552;28;20426;-57
2023/12/07 02:26:25;;;;;;;2.00;0.80;;;4.40;99.90;;;;;;5098176;28;20910;-57
2023/12/07 02:28:53;;;;;;;1.48;0.90;;;4.20;99.90;;;;;;5097494;28;20465;-59
2023/12/07 02:31:20;;;;;;;2.20;0.90;;;4.20;1.00;;;;;;5097959;28;20456;-60
2023/12/07 02:33:47;;;;;;;1.50;0.90;;;4.10;1.00;;;;;;5097728;28;20430;-59
2023/12/07 02:36:18;;;;;;;1.73;0.90;;;4.10;1.00;;;;;;5097761;28;20430;-57
2023/12/07 02:38:47;;;;;;;1.40;0.80;;;4.20;1.00;;;;;;5097211;28;20426;-58
2023/12/07 02:41:16;;;;;;;2.35;0.90;;;4.30;1.00;;;;;;5096196;28;20439;-58
2023/12/07 02:43:43;;;;;;;1.60;0.90;;;4.10;1.00;;;;;;5097387;28;20525;-59
2023/12/07 02:46:12;;;;;;;1.13;0.80;;;3.80;1.00;;;;;;5097622;28;20455;-58
2023/12/07 02:48:39;;;;;;;1.77;0.90;;;3.70;1.00;;;;;;5097397;28;20486;-58
2023/12/07 02:51:06;;;;;;;1.60;0.82;;;3.60;1.00;;;;;;5097364;28;20856;-58
2023/12/07 02:53:33;;;;;;;1.50;1.00;;;3.50;99.90;;;;;;5097805;28;20425;-57
2023/12/07 02:56:00;;;;;;;2.10;1.10;;;3.40;1.00;;;;;;5097506;28;20434;-58
2023/12/07 02:58:27;;;;;;;2.30;1.10;;;3.40;1.00;;;;;;5097533;28;20422;-61
2023/12/07 03:00:54;;;;;;;2.27;1.00;;;3.40;1.00;;;;;;5097083;28;20844;-58
2023/12/07 03:03:22;;;;;;;1.88;1.00;;;3.30;1.00;;;;;;5096409;28;20713;-58
2023/12/07 03:05:49;;;;;;;2.05;1.00;;;3.20;1.00;;;;;;5094601;28;20414;-58
2023/12/07 03:08:16;;;;;;;1.70;1.02;;;3.20;99.90;;;;;;5096244;28;20418;-57
2023/12/07 03:10:42;;;;;;;2.00;1.00;;;3.10;99.90;;;;;;5096970;28;20841;-58
2023/12/07 03:13:09;;;;;;;2.60;1.00;;;3.10;97.20;;;;;;5096035;28;20428;-56
2023/12/07 03:15:36;;;;;;;1.90;1.00;;;3.10;1.00;;;;;;5096535;28;20948;-57
2023/12/07 03:18:03;;;;;;;2.03;1.10;;;3.10;99.90;;;;;;5097062;28;20478;-57
2023/12/07 03:20:32;;;;;;;2.30;1.13;;;3.10;99.90;;;;;;5096146;28;20422;-58
2023/12/07 03:22:59;;;;;;;2.72;1.40;;;3.20;1.00;;;;;;5096675;28;20448;-57
2023/12/07 03:25:26;;;;;;;3.85;1.30;;;3.20;1.00;;;;;;5096930;28;20428;-58
2023/12/07 03:27:53;;;;;;;3.53;1.10;;;3.30;1.00;;;;;;5096282;28;20430;-58
2023/12/07 03:30:20;;;;;;;4.50;1.50;;;3.30;1.00;;;;;;5096450;28;20417;-58
2023/12/07 03:32:47;;;;;;;3.10;1.60;;;3.30;1.00;;;;;;5096660;28;20447;-58
2023/12/07 03:35:14;;;;;;;3.30;1.40;;;3.40;1.00;;;;;;5096448;28;20418;-58
2023/12/07 03:37:42;;;;;;;2.40;1.10;;;3.40;99.90;;;;;;5096117;28;20571;-58
2023/12/07 03:40:10;;;;;;;2.40;1.60;;;3.20;96.30;;;;;;5096211;28;20437;-58
2023/12/07 03:42:37;;;;;;;2.20;1.20;;;3.20;1.00;;;;;;5096435;28;20475;-57
2023/12/07 03:45:05;;;;;;;2.73;1.40;;;3.10;99.90;;;;;;5094105;28;20413;-58
2023/12/07 03:47:32;;;;;;;2.47;1.20;;;2.90;1.00;;;;;;5095984;28;20453;-58
2023/12/07 03:49:59;;;;;;;2.85;1.40;;;2.80;99.90;;;;;;5096140;28;20417;-58
2023/12/07 03:52:26;;;;;;;4.00;1.50;;;2.80;99.90;;;;;;5095912;28;20503;-58
2023/12/07 03:54:54;;;;;;;3.08;1.27;;;2.70;99.90;;;;;;5096273;28;20430;-56
2023/12/07 03:57:21;;;;;;;1.80;1.20;;;2.70;99.90;;;;;;5094888;28;20732;-58
2023/12/07 03:59:48;;;;;;;2.30;1.20;;;2.70;99.90;;;;;;5095778;28;20483;-57
2023/12/07 04:02:15;;;;;;;3.60;1.40;;;2.70;99.90;;;;;;5096110;28;20503;-57
2023/12/07 04:04:42;;;;;;;3.13;1.40;;;2.60;1.00;;;;;;5095929;28;20418;-57
2023/12/07 04:07:09;;;;;;;2.37;1.40;;;2.60;1.00;;;;;;5096160;28;20453;-58
2023/12/07 04:09:36;;;;;;;4.03;1.30;;;2.60;1.00;;;;;;5095985;28;20482;-57
2023/12/07 04:12:05;;;;;;;2.92;1.40;;;2.60;1.00;;;;;;5096003;28;20422;-57
2023/12/07 04:14:32;;;;;;;3.20;1.20;;;2.50;1.00;;;;;;5095715;28;20487;-56
2023/12/07 04:16:59;;;;;;;2.42;1.30;;;2.40;1.00;;;;;;5095658;28;20449;-58
2023/12/07 04:19:26;;;;;;;3.30;1.20;;;2.40;1.00;;;;;;5096119;28;20425;-58
2023/12/07 04:21:53;;;;;;;2.67;1.40;;;2.50;1.00;;;;;;5095516;28;20445;-58
2023/12/07 04:24:20;;;;;;;3.30;1.40;;;2.60;1.00;;;;;;5094082;28;20414;-57
2023/12/07 04:26:49;;;;;;;3.15;1.27;;;2.70;1.00;;;;;;5094973;28;20461;-57
2023/12/07 04:29:17;;;;;;;2.00;1.10;;;2.80;1.00;;;;;;5095197;28;20844;-58
2023/12/07 04:31:44;;;;;;;2.47;1.20;;;2.70;1.00;;;;;;5094570;28;20429;-58
2023/12/07 04:34:11;;;;;;;4.20;1.30;;;2.60;1.00;;;;;;5093178;28;20833;-55
2023/12/07 04:36:38;;;;;;;3.55;1.40;;;2.60;1.00;;;;;;5094956;28;20433;-57
2023/12/07 04:39:05;;;;;;;2.47;1.13;;;2.60;1.00;;;;;;5094855;28;20414;-57
2023/12/07 04:41:32;;;;;;;2.90;1.27;;;2.60;1.00;;;;;;5095513;28;20435;-57
2023/12/07 04:43:59;;;;;;;3.90;1.38;;;2.70;1.00;;;;;;5093865;28;20498;-58
2023/12/07 04:46:28;;;;;;;3.72;1.40;;;2.70;1.00;;;;;;5092813;28;20495;-57
2023/12/07 04:48:55;;;;;;;3.30;1.42;;;2.50;1.00;;;;;;5094111;28;20426;-59
2023/12/07 04:51:22;;;;;;;2.28;1.23;;;2.50;1.00;;;;;;5092423;28;20790;-58
2023/12/07 04:53:49;;;;;;;2.90;1.30;;;2.40;1.00;;;;;;5092393;28;20413;-58
2023/12/07 04:56:16;;;;;;;2.70;1.42;;;2.40;1.00;;;;;;5092390;28;20424;-58
2023/12/07 04:58:43;;;;;;;3.72;1.65;;;2.40;1.00;;;;;;5092036;28;20425;-58
2023/12/07 05:01:10;;;;;;;2.65;1.30;;;2.30;1.00;;;;;;5092860;28;20425;-58
2023/12/07 05:03:39;;;;;;;2.72;1.40;;;2.30;1.00;;;;;;5092512;28;20483;-58
2023/12/07 05:06:07;;;;;;;2.50;1.38;;;2.30;1.00;;;;;;5092580;28;20509;-57
2023/12/07 05:08:34;;;;;;;2.75;1.30;;;2.30;1.00;;;;;;5093814;28;20429;-56
2023/12/07 05:11:01;;;;;;;3.85;1.40;;;2.30;1.00;;;;;;5094391;28;20426;-56
2023/12/07 05:13:28;;;;;;;2.30;1.10;;;2.40;1.00;;;;;;5093443;28;20422;-57
2023/12/07 05:15:55;;;;;;;3.33;1.30;;;2.50;1.00;;;;;;5092813;28;20497;-57
2023/12/07 05:18:22;;;;;;;4.05;1.30;;;2.50;1.00;;;;;;5094098;28;20930;-58
2023/12/07 05:20:50;;;;;;;2.90;1.58;;;2.50;1.00;;;;;;5094552;28;20414;-57
2023/12/07 05:23:18;;;;;;;2.17;1.20;;;2.50;1.00;;;;;;5094451;28;20425;-57
2023/12/07 05:25:45;;;;;;;2.80;1.30;;;2.40;1.00;;;;;;5095128;28;20540;-57
2023/12/07 05:28:12;;;;;;;2.38;1.13;;;2.30;1.00;;;;;;5093724;28;20899;-57
2023/12/07 05:30:39;;;;;;;2.72;1.42;;;2.20;1.00;;;;;;5094522;28;20422;-57
2023/12/07 05:33:08;;;;;;;3.90;1.40;;;2.30;1.00;;;;;;5093129;28;20413;-57
2023/12/07 05:35:35;;;;;;;3.53;1.30;;;2.30;1.00;;;;;;5094202;28;20485;-57
2023/12/07 05:38:03;;;;;;;2.80;1.20;;;2.30;1.00;;;;;;5098069;28;20434;-57
2023/12/07 05:40:30;;;;;;;2.40;1.40;;;2.30;1.00;;;;;;5097344;28;20519;-58
2023/12/07 05:42:57;;;;;;;2.38;1.20;;;2.30;1.00;;;;;;5097527;28;20763;-56
2023/12/07 05:45:26;;;;;;;2.95;1.33;;;2.20;1.00;;;;;;5098046;28;20420;-56
2023/12/07 05:47:53;;;;;;;1.95;1.00;;;2.10;1.00;;;;;;5098875;28;20480;-57
2023/12/07 05:50:20;;;;;;;3.72;1.40;;;2.00;1.00;;;;;;5098031;28;20425;-57
2023/12/07 05:52:47;;;;;;;3.67;1.40;;;2.00;1.00;;;;;;5097319;28;20429;-56
2023/12/07 05:55:15;;;;;;;2.28;1.20;;;2.00;1.00;;;;;;5097523;28;20428;-55
2023/12/07 05:57:45;;;;;;;3.30;1.40;;;2.00;1.00;;;;;;5096687;28;20441;-57
2023/12/07 06:00:16;;;;;;;3.00;1.23;;;2.00;1.00;;;;;;5098240;28;20414;-57
2023/12/07 06:02:43;;;;;;;3.15;1.20;;;2.00;1.00;;;;;;5097277;28;20410;-56
2023/12/07 06:05:10;;;;;;;2.75;1.40;;;2.00;1.00;;;;;;5096766;28;20426;-57
2023/12/07 06:07:37;;;;;;;3.03;1.40;;;2.00;1.00;;;;;;5095969;28;20985;-59
2023/12/07 06:10:06;;;;;;;3.20;1.27;;;2.00;1.00;;;;;;5097136;28;20825;-57
2023/12/07 06:12:34;;;;;;;2.95;1.40;;;2.00;1.00;;;;;;5094062;28;20529;-57
2023/12/07 06:15:01;;;;;;;2.63;1.27;;;1.90;1.00;;;;;;5096453;28;20791;-57
2023/12/07 06:17:28;;;;;;;3.13;1.40;;;2.00;1.00;;;;;;5096919;28;20448;-56
2023/12/07 06:19:55;;;;;;;3.80;1.30;;;2.10;1.00;;;;;;5097611;28;20426;-57
2023/12/07 06:22:22;;;;;;;2.22;1.30;;;2.20;1.00;;;;;;5096980;28;20430;-55
2023/12/07 06:24:49;;;;;;;2.40;1.30;;;2.30;1.00;;;;;;5094388;28;20422;-56
2023/12/07 06:27:18;;;;;;;3.47;1.30;;;2.40;1.00;;;;;;5095428;28;20410;-55
2023/12/07 06:29:46;;;;;;;2.20;1.30;;;2.50;1.00;;;;;;5096354;28;20479;-57
2023/12/07 06:32:13;;;;;;;2.88;1.40;;;2.50;1.00;;;;;;5094100;28;20430;-57
2023/12/07 06:34:42;;;;;;;2.25;1.30;;;2.40;1.00;;;;;;5094645;28;20491;-60
2023/12/07 06:37:10;;;;;;;4.50;1.50;;;2.40;1.00;;;;;;5096174;28;20444;-55
2023/12/07 06:39:37;;;;;;;3.17;1.33;;;2.30;1.00;;;;;;5094714;28;20426;-53
2023/12/07 06:42:04;;;;;;;4.40;1.20;;;2.30;1.00;;;;;;5096610;28;20410;-56
2023/12/07 06:44:31;;;;;;;4.10;1.40;;;2.30;1.00;;;;;;5097332;28;20425;-57
2023/12/07 06:47:03;;;;;;;2.58;1.52;;;2.20;1.00;;;;;;5093526;28;20729;-57
2023/12/07 06:49:30;;;;;;;2.40;1.20;;;2.20;1.00;;;;;;5094012;28;20782;-55
2023/12/07 06:51:57;;;;;;;3.75;1.30;;;2.20;1.00;;;;;;5093888;28;20426;-57
2023/12/07 06:54:24;;;;;;;3.85;1.70;;;2.20;1.00;;;;;;5096053;28;20453;-58
2023/12/07 06:56:51;;;;;;;3.67;1.40;;;2.30;1.00;;;;;;5096968;28;20405;-57
2023/12/07 06:59:18;;;;;;;2.95;1.48;;;2.10;1.00;;;;;;5107682;27;20428;-57
2023/12/07 07:01:45;;;;;;;3.30;1.30;;;2.10;1.00;;;;;;5109492;28;20829;-58
2023/12/07 07:04:14;;;;;;;4.43;1.42;;;2.20;1.00;;;;;;5113183;28;20428;-57
2023/12/07 07:06:42;;;;;;;4.38;1.38;;;2.30;1.00;;;;;;5111720;28;20488;-57
2023/12/07 07:09:09;;;;;;;3.75;1.58;;;2.50;1.00;;;;;;5112725;27;20493;-57
2023/12/07 07:11:36;;;;;;;2.92;1.45;;;2.70;1.00;;;;;;5122488;27;20428;-56
2023/12/07 07:14:04;;;;;;;6.60;1.80;;;3.20;1.00;;;;;;5112372;28;20819;-56
2023/12/07 07:16:31;;;;;;;4.22;1.33;;;3.20;1.00;;;;;;5112258;28;20436;-57
2023/12/07 07:18:59;;;;;;;2.28;1.40;;;3.10;1.00;;;;;;5113659;27;20432;-58
2023/12/07 07:21:27;;;;;;;5.90;1.67;;;2.80;99.90;;;;;;5109572;28;20424;-57
2023/12/07 07:23:54;;;;;;;5.28;1.60;;;2.60;99.90;;;;;;5113050;28;20448;-57
2023/12/07 07:26:21;;;;;;;3.65;1.40;;;2.40;99.90;;;;;;5113474;28;20681;-56
2023/12/07 07:28:49;;;;;;;3.53;1.60;;;2.30;1.00;;;;;;5113055;28;20435;-56
2023/12/07 07:31:17;;;;;;;5.05;1.80;;;2.20;1.00;;;;;;5111922;28;20432;-57
2023/12/07 07:33:44;;;;;;;3.03;1.60;;;2.00;1.00;;;;;;5112513;28;20937;-56
2023/12/07 07:36:12;;;;;;;3.10;1.95;;;2.00;1.00;;;;;;5111062;28;20424;-56
2023/12/07 07:38:40;;;;;;;3.67;1.80;;;1.90;1.00;;;;;;5109140;28;20499;-54
2023/12/07 07:41:07;;;;;;;4.25;1.88;;;1.70;1.00;;;;;;5111184;28;20436;-55
2023/12/07 07:43:35;;;;;;;3.58;1.60;;;1.70;1.00;;;;;;5111896;28;20843;-55
2023/12/07 07:46:02;;;;;;;3.33;1.60;;;1.70;1.00;;;;;;5111063;28;20532;-56
2023/12/07 07:48:29;;;;;;;4.10;1.50;;;1.70;1.00;;;;;;5110016;28;20496;-57
2023/12/07 07:50:56;;;;;;;5.20;1.70;;;1.70;1.00;;;;;;5114022;28;20428;-57
2023/12/07 07:53:23;;;;;;;4.47;1.90;;;1.70;1.00;;;;;;5112375;28;20927;-54
2023/12/07 07:55:51;;;;;;;2.88;1.50;;;1.80;1.00;;;;;;5111836;28;20851;-55
2023/12/07 07:58:18;;;;;;;3.58;1.42;;;1.90;1.00;;;;;;5112316;28;20432;-62
2023/12/07 08:00:46;;;;;;;5.32;2.00;;;1.90;1.00;;;;;;5111301;28;20437;-53
2023/12/07 08:03:13;;;;;;;3.20;1.50;;;2.00;1.00;;;;;;5109668;28;20529;-59
2023/12/07 08:05:40;;;;;;;2.87;1.60;;;2.40;1.00;;;;;;5111755;28;20458;-57
2023/12/07 08:08:08;;;;;;;3.80;1.80;;;2.80;1.00;;;;;;5110776;28;20469;-57
2023/12/07 08:10:35;;;;;;;4.43;1.90;;;2.80;1.00;;;;;;5110957;28;20428;-57
2023/12/07 08:13:04;;;;;;;3.50;1.42;;;2.60;1.00;;;;;;5109769;28;20427;-57
2023/12/07 08:15:32;;;;;;;3.00;1.35;;;2.80;1.00;;;;;;5111556;28;20428;-59
2023/12/07 08:17:59;;;;;;;3.58;1.58;;;3.30;1.00;;;;;;5111705;28;20519;-59
2023/12/07 08:20:26;;;;;;;5.32;2.08;;;3.50;1.00;;;;;;5110269;28;20436;-59
2023/12/07 08:22:53;;;;;;;4.47;1.60;;;3.20;99.90;;;;;;5106412;28;20428;-58
2023/12/07 08:25:21;;;;;;;3.13;1.90;;;3.00;99.90;;;;;;5109339;28;20432;-59
2023/12/07 08:27:48;;;;;;;3.97;1.65;;;2.70;99.90;;;;;;5112544;28;20514;-59
2023/12/07 08:30:16;;;;;;;4.35;1.50;;;2.70;99.90;;;;;;5110525;28;20470;-58
2023/12/07 08:32:43;;;;;;;3.90;1.42;;;2.70;99.90;;;;;;5113444;28;20422;-59
2023/12/07 08:35:10;;;;;;;4.13;1.50;;;2.60;99.90;;;;;;5111236;28;20432;-59
2023/12/07 08:37:39;;;;;;;4.50;1.80;;;2.50;99.90;;;;;;5111146;28;20724;-61
2023/12/07 08:40:09;;;;;;;3.47;1.40;;;2.60;99.90;;;;;;5109911;28;21018;-59
2023/12/07 08:42:36;;;;;;;2.28;1.30;;;2.60;1.00;;;;;;5109583;28;20844;-59
2023/12/07 08:45:04;;;;;;;4.07;1.60;;;2.50;99.90;;;;;;5110944;28;20408;-59
2023/12/07 08:47:32;;;;;;;2.92;1.40;;;2.50;99.90;;;;;;5108985;28;20735;-59
2023/12/07 08:49:59;;;;;;;6.15;2.50;;;2.50;99.90;;;;;;5110773;28;20489;-59
2023/12/07 08:52:27;;;;;;;3.70;1.40;;;2.50;99.90;;;;;;5112650;28;20431;-59
2023/12/07 08:54:54;;;;;;;3.15;1.58;;;2.60;99.90;;;;;;5110263;28;20452;-59
2023/12/07 08:57:21;;;;;;;2.10;1.40;;;2.60;99.90;;;;;;5113847;27;20484;-60
2023/12/07 08:59:48;;;;;;;3.37;1.30;;;2.60;99.90;;;;;;5111724;28;20823;-59
2023/12/07 09:02:15;;;;;;;5.07;1.98;;;2.70;1.00;;;;;;5108909;28;20476;-60
2023/12/07 09:04:43;;;;;;;3.53;1.73;;;2.80;1.00;;;;;;5107190;28;20436;-59
2023/12/07 09:07:15;;;;;;;5.45;1.88;;;2.70;86.40;;;;;;5108862;28;20432;-58
2023/12/07 09:09:46;;;;;;;3.70;1.60;;;2.80;49.00;;;;;;5108078;28;20439;-58
2023/12/07 09:12:14;;;;;;;7.60;2.78;;;2.80;29.60;;;;;;5115171;28;20430;-57
2023/12/07 09:14:41;;;;;;;6.25;3.08;;;2.90;99.90;;;;;;5118216;27;20422;-58
2023/12/07 09:17:08;;;;;;;3.30;1.40;;;3.10;1.00;;;;;;5133310;27;20845;-58
2023/12/07 09:19:35;;;;;;;2.88;1.33;;;3.20;99.90;;;;;;5136897;27;20905;-56
2023/12/07 09:22:03;;;;;;;4.22;1.58;;;3.20;99.90;;;;;;5120975;27;20424;-58
2023/12/07 09:24:30;;;;;;;2.90;1.50;;;3.30;99.90;;;;;;5116597;28;20427;-57
2023/12/07 09:26:57;;;;;;;6.75;1.60;;;3.30;1.00;;;;;;5116143;28;20431;-58
2023/12/07 09:29:24;;;;;;;3.67;1.50;;;3.40;99.90;;;;;;5116621;28;20420;-58
2023/12/07 09:31:51;;;;;;;2.83;1.17;;;3.40;1.00;;;;;;5116062;28;20508;-58
2023/12/07 09:34:18;;;;;;;4.40;1.50;;;3.40;99.90;;;;;;5118310;28;20416;-58
2023/12/07 09:36:46;;;;;;;2.60;1.40;;;3.50;99.90;;;;;;5119841;28;20428;-58
2023/12/07 09:39:14;;;;;;;3.17;1.50;;;3.60;1.00;;;;;;5120338;28;20427;-58
2023/12/07 09:41:46;;;;;;;3.80;1.30;;;3.60;1.00;;;;;;5116798;28;20506;-58
2023/12/07 09:44:13;;;;;;;4.13;1.40;;;3.60;1.00;;;;;;5117871;28;20834;-57
2023/12/07 09:46:41;;;;;;;4.27;1.70;;;3.70;1.00;;;;;;5117426;28;20732;-58
2023/12/07 09:49:08;;;;;;;6.60;1.90;;;3.60;1.00;;;;;;5117683;28;20420;-58
2023/12/07 09:51:36;;;;;;;2.80;1.40;;;3.60;99.90;;;;;;5117810;27;20420;-58
2023/12/07 09:54:05;;;;;;;4.43;1.30;;;3.60;1.00;;;;;;5118848;28;20416;-58
2023/12/07 09:56:33;;;;;;;3.05;1.55;;;3.60;99.90;;;;;;5117678;27;20463;-58
2023/12/07 09:59:00;;;;;;;2.90;1.20;;;3.70;1.00;;;;;;5117721;28;20862;-59
2023/12/07 10:01:30;;;;;;;2.28;1.20;;;3.90;1.00;;;;;;5117226;28;20432;-58
2023/12/07 10:04:22;;;;;;;2.17;1.30;;;4.90;1.00;;;;;;5118260;28;20492;-57
2023/12/07 10:06:50;;;;;;;3.35;1.10;;;6.20;1.00;;;;;;5115069;27;20432;-58
2023/12/07 10:09:18;;;;;;;1.80;1.10;;;6.20;99.90;;;;;;5115437;28;20416;-57
2023/12/07 10:11:47;;;;;;;1.80;1.10;;;6.00;87.80;;;;;;5117428;28;20853;-57
2023/12/07 10:14:15;;;;;;;2.40;1.30;;;5.60;66.20;;;;;;5119211;28;20424;-57
2023/12/07 10:16:54;;;;;;;3.20;1.20;;;5.20;99.90;;;;;;5109674;28;20436;-57
2023/12/07 10:19:22;;;;;;;2.05;1.10;;;5.10;99.90;;;;;;5118892;28;20431;-57
2023/12/07 10:21:50;;;;;;;3.08;1.20;;;5.10;99.90;;;;;;5111116;28;20436;-62
2023/12/07 10:24:18;;;;;;;5.15;1.10;;;4.90;99.90;;;;;;5110548;28;20497;-56
2023/12/07 10:26:47;;;;;;;2.03;1.13;;;4.80;99.90;;;;;;5111609;28;20912;-58
2023/12/07 10:29:14;;;;;;;1.70;1.30;;;4.60;99.90;;;;;;5111436;28;20491;-58
2023/12/07 10:31:41;;;;;;;2.20;1.20;;;4.50;99.90;;;;;;5103159;28;20521;-58
2023/12/07 10:34:09;;;;;;;2.33;1.27;;;4.40;99.90;;;;;;5107836;28;20530;-54
2023/12/07 10:36:36;;;;;;;4.10;1.40;;;4.40;99.90;;;;;;5112296;28;20842;-50
2023/12/07 10:39:06;;;;;;;2.35;1.00;;;4.40;99.90;;;;;;5107879;28;20428;-52
2023/12/07 10:41:35;;;;;;;2.53;1.10;;;4.30;99.90;;;;;;5107151;28;20436;-50
2023/12/07 10:44:07;;;;;;;2.42;0.90;;;4.30;99.90;;;;;;5105880;28;20432;-52
2023/12/07 10:46:35;;;;;;;2.17;0.80;;;4.40;99.90;;;;;;5101527;28;20435;-50
2023/12/07 10:49:05;;;;;;;2.10;0.95;;;4.70;99.90;;;;;;5113779;28;20467;-59
2023/12/07 10:51:38;;;;;;;2.75;0.80;;;4.80;99.90;;;;;;5109588;28;20461;-59
2023/12/07 10:54:08;;;;;;;2.20;0.85;;;4.90;19.50;;;;;;5111320;28;20837;-58
2023/12/07 10:56:41;;;;;;;2.00;0.90;;;4.80;1.00;;;;;;5108415;28;20432;-58
2023/12/07 10:59:11;;;;;;;2.00;0.90;;;4.70;1.00;;;;;;5108701;28;20897;-58
2023/12/07 11:01:39;;;;;;;2.03;0.90;;;4.50;1.00;;;;;;5104736;28;20890;-58
2023/12/07 11:04:06;;;;;;;2.70;1.00;;;4.50;1.00;;;;;;5111001;28;20508;-58
2023/12/07 11:06:34;;;;;;;1.40;0.90;;;4.70;8.70;;;;;;5105963;28;20517;-57
2023/12/07 11:09:06;;;;;;;1.90;0.90;;;4.80;4.20;;;;;;5109424;28;20420;-58
2023/12/07 11:11:40;;;;;;;1.63;1.00;;;4.90;1.00;;;;;;5110178;28;20427;-59
2023/12/07 11:14:11;;;;;;;1.80;0.90;;;4.90;1.00;;;;;;5108263;28;20431;-58
2023/12/07 11:16:42;;;;;;;1.90;0.90;;;4.90;1.00;;;;;;5107117;28;20428;-58
2023/12/07 11:19:43;;;;;;;2.30;1.00;;;5.00;1.00;;;;;;5111683;28;20517;-59
2023/12/07 11:22:12;;;;;;;1.25;0.90;;;4.90;1.00;;;;;;5108216;28;20428;-58
2023/12/07 11:24:40;;;;;;;1.50;0.80;;;5.00;1.00;;;;;;5104121;28;20954;-58
2023/12/07 11:27:07;;;;;;;1.70;0.80;;;5.10;1.00;;;;;;5107657;28;20446;-58
2023/12/07 11:29:36;;;;;;;2.40;1.20;;;5.10;1.00;;;;;;5113442;28;20827;-58
2023/12/07 11:32:06;;;;;;;1.73;0.70;;;5.10;1.00;;;;;;5107947;28;20432;-58
2023/12/07 11:34:37;;;;;;;1.10;0.70;;;5.20;1.00;;;;;;5108810;28;20440;-58
2023/12/07 11:37:04;;;;;;;1.20;0.60;;;5.20;1.00;;;;;;5109741;28;20428;-58
2023/12/07 11:39:36;;;;;;;1.25;0.70;;;5.20;1.00;;;;;;5105930;28;20422;-58
2023/12/07 11:42:08;;;;;;;1.00;0.60;;;5.30;1.00;;;;;;5105759;28;20424;-58
2023/12/07 11:44:39;;;;;;;1.60;0.73;;;5.40;1.00;;;;;;5112666;28;20425;-58
2023/12/07 11:47:06;;;;;;;2.55;0.80;;;5.30;1.00;;;;;;5110345;28;20428;-59
2023/12/07 11:49:33;;;;;;;1.30;0.70;;;5.30;1.00;;;;;;5091408;28;20463;-59
2023/12/07 11:52:01;;;;;;;1.10;0.60;;;5.30;1.00;;;;;;5107990;28;20446;-58
2023/12/07 11:54:28;;;;;;;1.20;0.63;;;5.40;1.00;;;;;;5105813;28;20416;-59
2023/12/07 11:56:56;;;;;;;2.00;0.60;;;5.40;1.00;;;;;;5113155;28;20426;-59
2023/12/07 11:59:25;;;;;;;1.30;0.70;;;5.40;1.00;;;;;;5104703;28;20511;-58
2023/12/07 12:01:53;;;;;;;1.30;0.70;;;5.40;1.00;;;;;;5107749;28;20732;-59
2023/12/07 12:04:22;;;;;;;1.92;0.60;;;5.40;1.00;;;;;;5108448;28;20520;-57
2023/12/07 12:06:50;;;;;;;1.45;0.60;;;5.50;1.00;;;;;;5110118;28;20431;-60
2023/12/07 12:09:17;;;;;;;0.80;0.50;;;5.50;1.00;;;;;;5100232;28;20422;-58
2023/12/07 12:11:48;;;;;;;1.00;0.50;;;5.50;1.00;;;;;;5109098;28;20439;-60
2023/12/07 12:14:16;;;;;;;1.00;0.60;;;5.40;1.00;;;;;;5110317;27;20428;-58
2023/12/07 12:16:44;;;;;;;0.90;0.50;;;5.30;1.00;;;;;;5113471;28;20424;-59
2023/12/07 12:19:13;;;;;;;1.03;0.60;;;5.30;1.00;;;;;;5111256;28;20519;-59
2023/12/07 12:21:40;;;;;;;2.10;0.50;;;5.30;1.00;;;;;;5110387;28;20509;-59
2023/12/07 12:24:07;;;;;;;1.10;0.60;;;5.30;1.00;;;;;;5109728;28;20781;-59
2023/12/07 12:26:36;;;;;;;1.00;0.60;;;5.30;1.00;;;;;;5116208;27;20435;-59
2023/12/07 12:29:04;;;;;;;1.30;0.60;;;5.40;1.00;;;;;;5113082;28;20424;-59
2023/12/07 12:31:31;;;;;;;1.00;0.60;;;5.30;1.00;;;;;;5109150;28;20514;-59
2023/12/07 12:34:00;;;;;;;1.52;0.60;;;5.30;1.00;;;;;;5114248;28;20428;-59
2023/12/07 12:36:29;;;;;;;1.90;0.70;;;5.40;1.00;;;;;;5112644;28;20417;-59
2023/12/07 12:38:56;;;;;;;2.03;0.70;;;5.40;1.00;;;;;;5110829;28;20518;-59
2023/12/07 12:41:24;;;;;;;2.40;0.70;;;5.50;1.00;;;;;;5110750;28;20517;-59
2023/12/07 12:43:52;;;;;;;1.58;0.80;;;5.50;1.00;;;;;;5109697;28;20439;-59
2023/12/07 12:46:19;;;;;;;2.20;0.70;;;5.50;1.00;;;;;;5111079;28;20773;-60
2023/12/07 12:48:57;;;;;;;1.70;0.70;;;5.50;1.00;;;;;;5109914;28;20516;-59
2023/12/07 12:51:26;;;;;;;2.10;0.80;;;5.50;1.00;;;;;;5108894;28;20501;-59
2023/12/07 12:53:55;;;;;;;1.85;0.88;;;5.50;1.00;;;;;;5107161;28;20436;-58
2023/12/07 12:56:23;;;;;;;1.40;0.90;;;5.60;1.00;;;;;;5109996;28;20511;-58
2023/12/07 12:58:51;;;;;;;1.20;0.80;;;5.60;1.00;;;;;;5108277;28;20470;-58
2023/12/07 13:01:18;;;;;;;1.90;0.90;;;5.60;1.00;;;;;;5093646;28;20931;-59
2023/12/07 13:03:46;;;;;;;1.30;0.88;;;5.60;1.00;;;;;;5097630;28;20456;-59
2023/12/07 13:06:14;;;;;;;5.90;1.10;;;5.60;1.00;;;;;;5109603;28;20444;-58
2023/12/07 13:08:41;;;;;;;1.25;0.80;;;5.70;1.00;;;;;;5102514;28;20424;-58